createdAt,value
2018-09-28T00:01:45.617Z,90.30
2018-09-28T00:04:14.121Z,90.30
2018-09-28T00:06:42.573Z,90.50
2018-09-28T00:09:11.501Z,90.50
2018-09-28T00:11:40.134Z,90.40
2018-09-28T00:14:08.940Z,90.70
2018-09-28T00:16:37.386Z,90.80
2018-09-28T00:19:05.863Z,90.80
2018-09-28T00:21:34.309Z,90.30
2018-09-28T00:24:02.733Z,90.70
2018-09-28T00:26:31.349Z,90.90
2018-09-28T00:29:00.127Z,90.80
2018-09-28T00:31:28.769Z,91.20
2018-09-28T00:33:57.328Z,91.20
2018-09-28T00:36:25.957Z,91.10
2018-09-28T00:38:54.491Z,91.20
2018-09-28T00:41:22.954Z,91.30
2018-09-28T00:43:51.391Z,91.20
2018-09-28T00:46:19.813Z,91.30
2018-09-28T00:48:48.312Z,91.40
2018-09-28T00:51:16.818Z,91.30
2018-09-28T00:53:45.321Z,91.60
2018-09-28T00:56:13.753Z,91.60
2018-09-28T00:58:42.216Z,91.70
2018-09-28T01:01:10.644Z,91.60
2018-09-28T01:03:39.131Z,91.90
2018-09-28T01:06:07.653Z,92.00
2018-09-28T01:08:36.249Z,92.20
2018-09-28T01:11:04.733Z,92.10
2018-09-28T01:13:33.264Z,92.40
2018-09-28T01:16:01.732Z,92.40
2018-09-28T01:18:30.344Z,92.50
2018-09-28T01:20:58.950Z,92.30
2018-09-28T01:23:27.535Z,92.30
2018-09-28T01:25:56.162Z,92.40
2018-09-28T01:28:24.725Z,92.70
2018-09-28T01:30:53.269Z,92.30
2018-09-28T01:33:21.729Z,92.30
2018-09-28T01:35:50.186Z,92.20
2018-09-28T01:38:18.721Z,92.30
2018-09-28T01:40:47.116Z,92.30
2018-09-28T01:43:15.541Z,92.20
2018-09-28T01:45:43.979Z,92.30
2018-09-28T01:48:12.409Z,92.30
2018-09-28T01:50:40.797Z,92.30
2018-09-28T01:53:09.273Z,92.20
2018-09-28T01:55:37.685Z,92.20
2018-09-28T01:58:06.495Z,92.50
2018-09-28T02:00:34.964Z,92.70
2018-09-28T02:03:03.437Z,93.10
2018-09-28T02:05:31.971Z,93.10
2018-09-28T02:08:00.559Z,92.90
2018-09-28T02:10:29.078Z,92.50
2018-09-28T02:12:57.666Z,92.20
2018-09-28T02:15:26.335Z,92.50
2018-09-28T02:17:54.874Z,92.60
2018-09-28T02:20:24.027Z,92.50
2018-09-28T02:22:52.575Z,92.60
2018-09-28T02:25:20.952Z,92.80
2018-09-28T02:27:49.432Z,92.80
2018-09-28T02:30:17.898Z,92.70
2018-09-28T02:32:46.398Z,92.20
2018-09-28T02:35:14.831Z,92.20
2018-09-28T02:37:43.315Z,92.50
2018-09-28T02:40:11.759Z,92.20
2018-09-28T02:42:40.233Z,92.50
2018-09-28T02:45:08.703Z,92.60
2018-09-28T02:47:37.196Z,92.20
2018-09-28T02:50:05.803Z,91.70
2018-09-28T02:52:34.273Z,92.20
2018-09-28T02:55:02.773Z,92.00
2018-09-28T02:57:31.569Z,92.10
2018-09-28T03:00:00.155Z,92.00
2018-09-28T03:02:28.644Z,92.10
2018-09-28T03:04:57.326Z,92.10
2018-09-28T03:07:26.131Z,92.00
2018-09-28T03:09:54.643Z,91.90
2018-09-28T03:12:24.171Z,91.40
2018-09-28T03:14:52.636Z,91.90
2018-09-28T03:17:21.061Z,91.50
2018-09-28T03:19:49.487Z,91.90
2018-09-28T03:22:17.895Z,92.50
2018-09-28T03:24:46.332Z,92.20
2018-09-28T03:27:14.685Z,92.50
2018-09-28T03:29:43.127Z,92.00
2018-09-28T03:32:11.554Z,91.60
2018-09-28T03:34:40.005Z,91.60
2018-09-28T03:37:08.450Z,92.00
2018-09-28T03:39:36.875Z,92.30
2018-09-28T03:42:05.439Z,92.40
2018-09-28T03:44:33.851Z,92.40
2018-09-28T03:47:02.595Z,92.40
2018-09-28T03:49:31.101Z,92.40
2018-09-28T03:51:59.722Z,92.00
2018-09-28T03:54:28.548Z,92.40
2018-09-28T03:56:57.144Z,92.40
2018-09-28T03:59:25.781Z,92.40
2018-09-28T04:01:54.251Z,92.50
2018-09-28T04:04:22.673Z,92.50
2018-09-28T04:06:51.169Z,92.60
2018-09-28T04:11:58.768Z,93.70
2018-09-28T04:14:27.276Z,93.50
2018-09-28T04:16:55.757Z,93.70
2018-09-28T04:19:24.233Z,93.00
2018-09-28T04:21:59.562Z,92.40
2018-09-28T04:24:28.749Z,92.70
2018-09-28T04:26:57.625Z,92.70
2018-09-28T04:29:26.373Z,92.60
2018-09-28T04:31:55.041Z,92.80
2018-09-28T04:34:23.652Z,93.10
2018-09-28T04:36:52.428Z,93.20
2018-09-28T04:39:20.907Z,93.50
2018-09-28T04:41:49.396Z,93.50
2018-09-28T04:44:17.844Z,93.50
2018-09-28T04:46:46.267Z,93.70
2018-09-28T04:49:14.796Z,93.20
2018-09-28T04:51:43.284Z,92.60
2018-09-28T04:54:11.746Z,92.70
2018-09-28T04:56:40.296Z,92.80
2018-09-28T04:59:08.820Z,92.80
2018-09-28T05:01:37.253Z,92.90
2018-09-28T05:04:05.760Z,93.20
2018-09-28T05:06:34.220Z,93.20
2018-09-28T05:09:02.737Z,93.40
2018-09-28T05:11:31.219Z,93.50
2018-09-28T05:13:59.841Z,93.30
2018-09-28T05:16:28.536Z,93.60
2018-09-28T05:18:57.175Z,93.40
2018-09-28T05:21:25.709Z,93.40
2018-09-28T05:23:54.354Z,93.60
2018-09-28T05:26:22.763Z,93.70
2018-09-28T05:28:51.242Z,93.70
2018-09-28T05:31:19.800Z,93.40
2018-09-28T05:33:48.267Z,93.60
2018-09-28T05:36:16.700Z,93.20
2018-09-28T05:38:45.156Z,93.00
2018-09-28T05:41:13.618Z,92.90
2018-09-28T05:43:42.120Z,92.90
2018-09-28T05:46:10.659Z,93.20
2018-09-28T05:48:39.269Z,92.80
2018-09-28T05:51:07.884Z,92.90
2018-09-28T05:53:36.699Z,93.30
2018-09-28T05:56:05.361Z,93.20
2018-09-28T05:58:39.325Z,93.50
2018-09-28T06:01:13.152Z,94.50
2018-09-28T06:03:47.018Z,94.00
2018-09-28T06:06:15.522Z,94.50
2018-09-28T06:08:43.940Z,94.90
2018-09-28T06:11:14.483Z,94.70
2018-09-28T06:13:43.083Z,94.60
2018-09-28T06:16:11.630Z,94.40
2018-09-28T06:18:44.249Z,94.30
2018-09-28T06:21:12.735Z,94.20
2018-09-28T06:23:41.318Z,93.90
2018-09-28T06:26:09.832Z,93.50
2018-09-28T06:28:38.281Z,93.30
2018-09-28T06:31:06.949Z,93.10
2018-09-28T06:33:35.380Z,92.70
2018-09-28T06:36:03.926Z,92.80
2018-09-28T06:38:32.374Z,92.60
2018-09-28T06:41:00.994Z,92.10
2018-09-28T06:43:29.561Z,92.20
2018-09-28T06:45:58.140Z,92.20
2018-09-28T06:48:33.325Z,92.00
2018-09-28T06:51:01.867Z,91.80
2018-09-28T06:53:30.466Z,91.70
2018-09-28T06:55:58.992Z,91.70
2018-09-28T06:58:27.648Z,91.60
2018-09-28T07:00:56.307Z,91.80
2018-09-28T07:03:24.832Z,91.70
2018-09-28T07:05:53.449Z,91.70
2018-09-28T07:08:21.976Z,91.90
2018-09-28T07:10:50.399Z,91.20
2018-09-28T07:13:18.949Z,91.00
2018-09-28T07:15:47.436Z,90.30
2018-09-28T07:18:15.922Z,89.60
2018-09-28T07:20:44.382Z,89.80
2018-09-28T07:23:12.799Z,89.70
2018-09-28T07:25:41.332Z,89.20
2018-09-28T07:28:10.847Z,88.50
2018-09-28T07:30:41.460Z,88.70
2018-09-28T07:33:10.008Z,88.50
2018-09-28T07:35:38.587Z,88.40
2018-09-28T07:38:07.156Z,87.30
2018-09-28T07:40:35.605Z,86.50
2018-09-28T07:43:05.231Z,85.30
2018-09-28T07:45:33.622Z,84.60
2018-09-28T07:48:02.186Z,82.90
2018-09-28T07:50:30.670Z,82.30
2018-09-28T07:52:59.327Z,79.30
2018-09-28T07:55:28.020Z,76.50
2018-09-28T07:57:56.856Z,74.70
2018-09-28T08:00:25.594Z,75.10
2018-09-28T08:02:54.563Z,71.40
2018-09-28T08:05:23.066Z,67.90
2018-09-28T08:07:51.545Z,67.80
2018-09-28T08:10:20.026Z,66.60
2018-09-28T08:12:48.469Z,67.70
2018-09-28T08:15:16.964Z,67.20
2018-09-28T08:17:45.467Z,65.70
2018-09-28T08:20:13.992Z,65.60
2018-09-28T08:22:42.504Z,65.00
2018-09-28T08:25:11.833Z,66.00
2018-09-28T08:30:18.698Z,65.30
2018-09-28T08:32:47.262Z,64.10
2018-09-28T08:35:15.845Z,63.80
2018-09-28T08:37:44.368Z,63.90
2018-09-28T08:40:12.902Z,63.30
2018-09-28T08:42:41.442Z,63.70
2018-09-28T08:45:09.971Z,62.20
2018-09-28T08:47:38.433Z,62.30
2018-09-28T08:50:07.106Z,61.70
2018-09-28T08:52:35.594Z,59.30
2018-09-28T08:55:04.401Z,58.20
2018-09-28T08:57:32.907Z,57.80
2018-09-28T09:00:01.605Z,57.30
2018-09-28T09:02:30.108Z,56.30
2018-09-28T09:04:58.776Z,56.30
2018-09-28T09:07:27.667Z,56.40
2018-09-28T09:09:56.215Z,55.50
2018-09-28T09:12:24.932Z,54.20
2018-09-28T09:14:53.457Z,52.40
2018-09-28T09:17:22.055Z,52.50
2018-09-28T09:19:51.001Z,51.30
2018-09-28T09:22:19.562Z,52.20
2018-09-28T09:24:48.111Z,53.00
2018-09-28T09:27:16.700Z,50.10
2018-09-28T09:29:45.252Z,50.00
2018-09-28T09:32:13.730Z,51.70
2018-09-28T09:34:42.220Z,52.20
2018-09-28T09:37:10.784Z,52.60
2018-09-28T09:39:39.318Z,52.80
2018-09-28T09:42:07.941Z,52.40
2018-09-28T09:44:36.349Z,50.70
2018-09-28T09:47:04.924Z,50.30
2018-09-28T09:49:33.493Z,47.50
2018-09-28T09:52:02.001Z,48.00
2018-09-28T09:54:30.624Z,48.20
2018-09-28T09:56:59.240Z,48.60
2018-09-28T09:59:27.753Z,48.00
2018-09-28T10:02:01.556Z,47.20
2018-09-28T10:04:30.347Z,47.20
2018-09-28T10:06:59.064Z,46.50
2018-09-28T10:09:27.605Z,45.40
2018-09-28T10:11:56.624Z,46.00
2018-09-28T10:14:25.692Z,45.10
2018-09-28T10:16:54.391Z,45.20
2018-09-28T10:19:23.390Z,43.30
2018-09-28T10:21:52.413Z,41.50
2018-09-28T10:24:20.986Z,40.50
2018-09-28T10:26:49.470Z,39.70
2018-09-28T10:29:18.409Z,39.00
2018-09-28T10:31:46.881Z,37.30
2018-09-28T10:34:15.398Z,36.40
2018-09-28T10:36:43.885Z,31.50
2018-09-28T10:39:12.409Z,30.10
2018-09-28T10:41:40.933Z,29.20
2018-09-28T10:44:09.382Z,29.40
2018-09-28T10:46:37.971Z,28.70
2018-09-28T10:49:06.438Z,29.40
2018-09-28T10:51:35.026Z,29.70
2018-09-28T10:54:03.546Z,30.30
2018-09-28T10:56:32.111Z,30.20
2018-09-28T10:59:00.847Z,30.00
2018-09-28T11:01:30.667Z,30.80
2018-09-28T11:03:59.316Z,30.90
2018-09-28T11:06:29.815Z,30.80
2018-09-28T11:09:00.171Z,32.80
2018-09-28T11:11:29.098Z,33.40
2018-09-28T11:13:57.633Z,34.50
2018-09-28T11:16:26.345Z,36.40
2018-09-28T11:18:54.973Z,36.50
2018-09-28T11:21:23.536Z,36.90
2018-09-28T11:23:51.977Z,36.90
2018-09-28T11:26:20.572Z,37.10
2018-09-28T11:28:48.984Z,37.00
2018-09-28T11:31:17.491Z,37.10
2018-09-28T11:33:45.987Z,34.80
2018-09-28T11:36:14.521Z,33.60
2018-09-28T11:38:43.039Z,34.60
2018-09-28T11:41:11.553Z,34.30
2018-09-28T11:43:40.033Z,35.30
2018-09-28T11:46:08.564Z,37.00
2018-09-28T11:48:37.060Z,37.20
2018-09-28T11:51:06.109Z,38.20
2018-09-28T11:53:34.661Z,38.60
2018-09-28T11:56:03.429Z,39.50
2018-09-28T11:58:31.981Z,38.50
2018-09-28T12:01:00.821Z,39.00
2018-09-28T12:03:29.731Z,40.40
2018-09-28T12:05:58.300Z,42.00
2018-09-28T12:08:27.608Z,42.10
2018-09-28T12:10:56.363Z,42.20
2018-09-28T12:13:25.562Z,43.30
2018-09-28T12:15:54.163Z,44.10
2018-09-28T12:18:22.946Z,44.50
2018-09-28T12:20:51.404Z,44.50
2018-09-28T12:23:19.957Z,44.50
2018-09-28T12:25:48.479Z,44.90
2018-09-28T12:28:17.003Z,44.70
2018-09-28T12:30:45.521Z,43.50
2018-09-28T12:33:14.046Z,43.10
2018-09-28T12:35:42.589Z,44.60
2018-09-28T12:38:11.080Z,45.70
2018-09-28T12:40:39.718Z,46.20
2018-09-28T12:43:08.661Z,46.30
2018-09-28T12:45:37.329Z,46.70
2018-09-28T12:48:06.048Z,47.00
2018-09-28T12:50:34.593Z,48.80
2018-09-28T12:53:03.371Z,49.10
2018-09-28T12:55:32.882Z,50.10
2018-09-28T12:58:01.433Z,51.00
2018-09-28T13:00:30.285Z,51.60
2018-09-28T13:02:58.941Z,52.20
2018-09-28T13:05:27.631Z,52.90
2018-09-28T13:07:57.398Z,53.60
2018-09-28T13:10:25.920Z,54.00
2018-09-28T13:12:55.934Z,54.70
2018-09-28T13:15:24.539Z,55.30
2018-09-28T13:17:53.076Z,56.00
2018-09-28T13:20:21.684Z,56.40
2018-09-28T13:22:50.177Z,57.40
2018-09-28T13:25:18.737Z,58.30
2018-09-28T13:27:47.306Z,59.40
2018-09-28T13:30:15.835Z,60.30
2018-09-28T13:32:44.309Z,60.90
2018-09-28T13:35:12.827Z,62.10
2018-09-28T13:37:41.309Z,62.40
2018-09-28T13:40:09.845Z,63.30
2018-09-28T13:42:38.357Z,64.40
2018-09-28T13:45:06.990Z,64.40
2018-09-28T13:47:35.466Z,65.40
2018-09-28T13:50:04.171Z,66.00
2018-09-28T13:52:32.986Z,66.60
2018-09-28T13:55:01.595Z,67.20
2018-09-28T13:57:30.254Z,67.80
2018-09-28T13:59:58.854Z,68.40
2018-09-28T14:02:27.543Z,68.70
2018-09-28T14:04:56.101Z,69.00
2018-09-28T14:07:24.629Z,69.20
2018-09-28T14:09:53.104Z,69.70
2018-09-28T14:12:21.647Z,70.10
2018-09-28T14:14:50.240Z,70.40
2018-09-28T14:17:18.606Z,70.30
2018-09-28T14:20:11.946Z,70.40
2018-09-28T14:22:40.588Z,70.60
2018-09-28T14:25:09.154Z,70.30
2018-09-28T14:27:37.640Z,71.40
2018-09-28T14:30:06.222Z,71.40
2018-09-28T14:32:34.882Z,71.30
2018-09-28T14:35:03.464Z,71.80
2018-09-28T14:37:47.383Z,72.10
2018-09-28T14:40:17.337Z,73.20
2018-09-28T14:42:45.996Z,73.30
2018-09-28T14:45:15.816Z,74.30
2018-09-28T14:47:44.451Z,74.60
2018-09-28T14:50:12.984Z,75.30
2018-09-28T14:52:41.652Z,75.80
2018-09-28T14:55:10.336Z,76.10
2018-09-28T14:57:53.731Z,76.60
2018-09-28T15:03:41.179Z,78.00
2018-09-28T15:06:09.886Z,77.70
2018-09-28T15:08:47.076Z,77.80
2018-09-28T15:11:16.110Z,78.00
2018-09-28T15:13:44.654Z,77.70
2018-09-28T15:16:13.254Z,77.90
2018-09-28T15:18:41.748Z,77.80
2018-09-28T15:21:10.282Z,78.20
2018-09-28T15:23:38.819Z,78.40
2018-09-28T15:26:07.361Z,78.60
2018-09-28T15:28:35.978Z,78.80
2018-09-28T15:31:04.676Z,78.50
2018-09-28T15:40:31.770Z,78.40
2018-09-28T15:43:00.493Z,76.40
2018-09-28T15:45:29.148Z,76.60
2018-09-28T15:47:58.351Z,76.70
2018-09-28T15:50:27.077Z,76.50
2018-09-28T15:52:56.044Z,73.20
2018-09-28T15:56:20.545Z,73.20
2018-09-28T15:58:49.486Z,72.50
2018-09-28T16:01:18.070Z,73.10
2018-09-28T16:04:06.034Z,73.10
2018-09-28T16:07:12.001Z,71.80
2018-09-28T16:09:40.624Z,71.70
2018-09-28T16:16:55.184Z,70.40
2018-09-28T16:19:27.855Z,69.90
2018-09-28T16:24:50.310Z,69.20
2018-09-28T16:28:37.016Z,68.00
2018-09-28T16:31:05.633Z,67.60
2018-09-28T16:33:34.470Z,66.00
2018-09-28T16:36:07.077Z,64.80
2018-09-28T16:38:38.218Z,64.50
2018-09-28T16:41:08.669Z,63.90
2018-09-28T16:43:40.237Z,63.70
2018-09-28T16:46:09.949Z,63.10
2018-09-28T16:48:38.663Z,63.40
2018-09-28T16:51:16.282Z,63.60
2018-09-28T16:53:46.563Z,63.30
2018-09-28T16:56:15.830Z,61.70
2018-09-28T16:58:44.849Z,61.70
2018-09-28T17:01:21.238Z,61.70
2018-09-28T17:03:51.947Z,61.70
2018-09-28T17:06:21.397Z,60.90
2018-09-28T17:08:50.942Z,59.90
2018-09-28T17:11:20.977Z,60.20
2018-09-28T17:13:56.420Z,59.90
2018-09-28T17:16:28.105Z,59.30
2018-09-28T17:19:04.513Z,59.10
2018-09-28T17:21:37.436Z,58.00
2018-09-28T17:27:05.138Z,57.80
2018-09-28T17:32:27.639Z,56.60
2018-09-28T17:34:58.129Z,56.50
2018-09-28T17:37:29.118Z,56.20
2018-09-28T17:40:01.092Z,55.70
2018-09-28T17:42:31.545Z,55.60
2018-09-28T17:45:03.888Z,55.80
2018-09-28T17:47:34.696Z,55.90
2018-09-28T17:52:45.898Z,55.30
2018-09-28T17:55:15.133Z,55.60
2018-09-28T17:57:45.804Z,55.60
2018-09-28T18:00:15.035Z,55.50
2018-09-28T18:02:44.312Z,55.30
2018-09-28T18:05:13.304Z,55.50
2018-09-28T18:07:42.338Z,55.60
2018-09-28T18:10:11.535Z,55.80
2018-09-28T18:12:46.189Z,55.70
2018-09-28T18:15:20.633Z,55.80
2018-09-28T18:17:53.500Z,55.80
2018-09-28T18:20:24.749Z,55.90
2018-09-28T18:22:54.437Z,56.00
2018-09-28T18:25:24.921Z,56.20
2018-09-28T18:28:40.186Z,56.50
2018-09-28T18:31:10.351Z,56.60
2018-09-28T18:33:39.858Z,56.70
2018-09-28T18:36:08.837Z,57.10
2018-09-28T18:38:38.775Z,57.50
2018-09-28T18:41:08.018Z,57.80
2018-09-28T18:43:36.687Z,58.20
2018-09-28T18:46:05.405Z,58.60
2018-09-28T18:48:34.695Z,58.90
2018-09-28T18:51:04.115Z,60.20
2018-09-28T18:53:34.342Z,60.90
2018-09-28T18:56:04.283Z,60.80
2018-09-28T18:58:32.912Z,61.40
2018-09-28T19:01:01.880Z,61.70
2018-09-28T19:03:30.579Z,62.50
2018-09-28T19:05:59.445Z,63.10
2018-09-28T19:08:28.348Z,64.00
2018-09-28T19:10:56.954Z,64.90
2018-09-28T19:13:26.155Z,65.60
2018-09-28T19:15:54.720Z,66.60
2018-09-28T19:18:23.695Z,67.20
2018-09-28T19:20:52.304Z,68.00
2018-09-28T19:23:21.376Z,68.30
2018-09-28T19:25:49.888Z,69.10
2018-09-28T19:28:18.464Z,69.90
2018-09-28T19:30:47.629Z,70.30
2018-09-28T19:33:16.229Z,69.80
2018-09-28T19:35:44.904Z,70.10
2018-09-28T19:38:13.521Z,70.60
2018-09-28T19:40:42.029Z,71.50
2018-09-28T19:43:10.861Z,71.80
2018-09-28T19:45:39.421Z,72.20
2018-09-28T19:48:08.489Z,72.60
2018-09-28T19:50:37.040Z,72.60
2018-09-28T19:53:05.624Z,72.80
2018-09-28T19:55:36.585Z,73.40
2018-09-28T19:58:05.824Z,73.20
2018-09-28T20:00:34.327Z,73.60
2018-09-28T20:03:03.008Z,73.60
2018-09-28T20:05:31.680Z,73.90
2018-09-28T20:08:00.206Z,73.90
2018-09-28T20:10:28.983Z,74.60
2018-09-28T20:12:58.152Z,74.40
2018-09-28T20:15:26.848Z,74.20
2018-09-28T20:17:56.601Z,73.80
2018-09-28T20:20:25.199Z,74.10
2018-09-28T20:22:53.698Z,74.30
2018-09-28T20:25:22.320Z,73.90
2018-09-28T20:27:50.840Z,74.20
2018-09-28T20:30:19.478Z,74.10
2018-09-28T20:32:48.138Z,73.80
2018-09-28T20:35:16.743Z,73.70
2018-09-28T20:37:45.301Z,73.90
2018-09-28T20:40:13.812Z,73.70
2018-09-28T20:42:42.325Z,73.70
2018-09-28T20:45:10.837Z,73.70
2018-09-28T20:47:39.672Z,73.30
2018-09-28T20:50:08.269Z,73.60
2018-09-28T20:52:36.697Z,73.50
2018-09-28T20:55:05.546Z,73.40
2018-09-28T20:57:34.550Z,73.10
2018-09-28T21:00:03.525Z,72.50
2018-09-28T21:02:32.192Z,71.80
2018-09-28T21:05:01.564Z,71.80
2018-09-28T21:07:30.593Z,70.90
2018-09-28T21:09:59.363Z,70.50
2018-09-28T21:12:28.741Z,69.80
2018-09-28T21:14:58.531Z,69.60
2018-09-28T21:20:09.984Z,68.60
2018-09-28T21:22:40.325Z,68.60
2018-09-28T21:25:08.899Z,68.40
2018-09-28T21:27:37.724Z,66.50
2018-09-28T21:30:07.617Z,66.20
2018-09-28T21:32:36.170Z,65.70
2018-09-28T21:35:04.819Z,65.70
2018-09-28T21:37:33.369Z,65.60
2018-09-28T21:40:02.225Z,64.80
2018-09-28T21:42:32.850Z,64.40
2018-09-28T21:45:03.044Z,63.80
2018-09-28T21:47:31.763Z,63.50
2018-09-28T21:50:00.583Z,63.80
2018-09-28T21:52:29.286Z,62.60
2018-09-28T21:54:58.035Z,63.10
2018-09-28T21:57:26.768Z,62.60
2018-09-28T21:59:56.357Z,62.50
2018-09-28T22:02:25.236Z,63.30
2018-09-28T22:04:54.916Z,62.20
2018-09-28T22:07:23.620Z,62.50
2018-09-28T22:09:52.317Z,61.80
2018-09-28T22:12:21.287Z,61.90
2018-09-28T22:14:49.850Z,61.60
2018-09-28T22:17:18.499Z,61.50
2018-09-28T22:19:47.005Z,61.10
2018-09-28T22:22:15.931Z,60.60
2018-09-28T22:24:44.487Z,60.60
2018-09-28T22:27:13.101Z,60.00
2018-09-28T22:29:41.626Z,59.80
2018-09-28T22:32:10.215Z,59.50
2018-09-28T22:34:38.933Z,59.50
2018-09-28T22:37:07.475Z,59.00
2018-09-28T22:39:36.110Z,58.90
2018-09-28T22:42:04.776Z,59.00
2018-09-28T22:44:33.298Z,59.00
2018-09-28T22:47:01.962Z,59.00
2018-09-28T22:49:30.909Z,58.30
2018-09-28T22:51:59.788Z,58.20
2018-09-28T22:54:28.498Z,58.60
2018-09-28T22:56:57.295Z,57.80
2018-09-28T22:59:25.949Z,57.90
2018-09-28T23:01:54.581Z,57.70
2018-09-28T23:04:23.064Z,57.20
2018-09-28T23:06:51.641Z,57.00
2018-09-28T23:09:20.137Z,56.80
2018-09-28T23:11:48.726Z,56.70
2018-09-28T23:14:17.195Z,57.20
2018-09-28T23:16:45.757Z,56.80
2018-09-28T23:19:14.176Z,56.90
2018-09-28T23:21:42.791Z,56.60
2018-09-28T23:24:11.317Z,56.70
2018-09-28T23:26:39.856Z,57.00
2018-09-28T23:29:08.400Z,57.00
2018-09-28T23:31:37.000Z,57.10
2018-09-28T23:34:05.570Z,57.30
2018-09-28T23:36:34.153Z,57.20
2018-09-28T23:39:02.812Z,57.10
2018-09-28T23:41:31.393Z,57.00
2018-09-28T23:44:00.008Z,57.20
2018-09-28T23:46:28.932Z,57.30
2018-09-28T23:48:57.607Z,57.10
2018-09-28T23:51:26.213Z,57.20
2018-09-28T23:53:54.893Z,57.30
2018-09-28T23:56:23.404Z,57.40
2018-09-28T23:58:51.950Z,57.80
